Time;durP1;ratioP1;P1;durP2;ratioP2;P2;SDS_P1;SDS_P2;PMS_P1;PMS_P2;Temp;Humidity;BMP_temperature;BMP_pressure;BME280_temperature;BME280_humidity;BME280_pressure;Samples;Min_cycle;Max_cycle;Signal;HPM_P1;HPM_P2
2021/12/31 00:02:22;;;;;;;28.98;14.38;;;4.00;99.90;;;;;;5036304;28;20029;-80
2021/12/31 00:04:51;;;;;;;24.15;13.52;;;4.00;99.90;;;;;;5000809;28;20076;-79
2021/12/31 00:07:17;;;;;;;24.67;13.65;;;4.00;99.90;;;;;;5036238;28;20254;-81
2021/12/31 00:09:46;;;;;;;25.08;14.73;;;4.00;99.90;;;;;;5034121;28;20040;-80
2021/12/31 00:12:12;;;;;;;26.15;14.50;;;4.10;99.90;;;;;;5018633;28;20040;-81
2021/12/31 00:14:37;;;;;;;26.52;15.13;;;4.10;99.90;;;;;;5017553;28;20029;-80
2021/12/31 00:17:07;;;;;;;27.67;14.88;;;4.10;99.90;;;;;;5039683;28;20044;-80
2021/12/31 00:19:39;;;;;;;29.30;14.27;;;4.20;99.90;;;;;;5037767;28;20026;-80
2021/12/31 00:22:27;;;;;;;28.63;14.45;;;7.30;99.90;;;;;;5037635;28;20167;-81
2021/12/31 00:24:50;;;;;;;25.43;15.13;;;4.10;99.90;;;;;;5036324;28;20393;-80
2021/12/31 00:27:16;;;;;;;31.27;15.50;;;4.10;99.90;;;;;;5037667;28;20041;-79
2021/12/31 00:29:42;;;;;;;26.27;15.27;;;4.10;99.90;;;;;;5021423;28;20029;-80
2021/12/31 00:32:09;;;;;;;26.83;14.93;;;4.10;99.90;;;;;;5039622;28;20073;-80
2021/12/31 00:34:35;;;;;;;25.38;15.05;;;4.20;99.90;;;;;;5038299;28;20018;-79
2021/12/31 00:37:01;;;;;;;25.52;13.55;;;4.10;99.90;;;;;;5017202;28;20029;-80
2021/12/31 00:39:27;;;;;;;24.30;12.70;;;2.40;99.90;;;;;;5034885;28;20079;-81
2021/12/31 00:41:52;;;;;;;23.55;13.18;;;4.20;99.90;;;;;;5016626;28;20061;-79
2021/12/31 00:44:20;;;;;;;25.52;12.15;;;4.10;99.90;;;;;;5035587;28;20037;-80
2021/12/31 00:46:49;;;;;;;19.95;11.77;;;4.20;99.90;;;;;;5032047;28;20308;-81
2021/12/31 00:49:15;;;;;;;24.38;13.65;;;4.30;99.90;;;;;;5039645;28;20124;-81
2021/12/31 00:51:41;;;;;;;24.83;13.38;;;4.30;99.90;;;;;;5052745;28;20063;-80
2021/12/31 00:54:08;;;;;;;26.38;15.05;;;4.30;99.90;;;;;;5054404;28;20106;-81
2021/12/31 00:56:35;;;;;;;26.42;15.27;;;4.30;99.90;;;;;;5053612;28;20024;-80
2021/12/31 00:59:01;;;;;;;26.63;15.00;;;4.30;99.80;;;;;;5055019;28;20017;-80
2021/12/31 01:01:30;;;;;;;24.20;12.90;;;4.30;99.90;;;;;;5035087;28;20036;-81
2021/12/31 01:03:56;;;;;;;27.25;13.48;;;4.40;99.90;;;;;;5056335;28;20729;-80
2021/12/31 01:06:22;;;;;;;20.83;12.45;;;4.40;99.80;;;;;;5056394;28;20041;-80
2021/12/31 01:08:48;;;;;;;20.92;12.80;;;4.40;99.90;;;;;;5039016;28;20021;-81
2021/12/31 01:11:15;;;;;;;20.73;12.45;;;4.40;99.90;;;;;;5057018;28;20055;-80
2021/12/31 01:14:00;;;;;;;22.90;13.82;;;4.40;99.90;;;;;;5052151;28;20021;-82
2021/12/31 01:16:36;;;;;;;29.33;15.88;;;4.40;99.90;;;;;;5049152;28;20032;-80
2021/12/31 01:21:33;;;;;;;27.13;14.65;;;4.40;99.90;;;;;;5052729;28;20511;-80
2021/12/31 01:24:01;;;;;;;24.80;14.38;;;4.20;99.80;;;;;;5056883;28;20573;-79
2021/12/31 01:26:27;;;;;;;27.05;13.40;;;4.40;99.90;;;;;;5052856;28;20395;-81
2021/12/31 01:28:53;;;;;;;21.30;11.88;;;4.40;99.90;;;;;;5020853;28;20037;-81
2021/12/31 01:31:21;;;;;;;24.17;12.52;;;3.80;99.90;;;;;;5034250;28;20017;-81
2021/12/31 01:33:47;;;;;;;20.80;11.57;;;4.40;99.90;;;;;;5048541;28;20025;-81
2021/12/31 01:36:13;;;;;;;23.83;12.85;;;4.50;99.90;;;;;;5046640;28;20018;-80
2021/12/31 01:38:39;;;;;;;23.73;12.55;;;4.50;99.60;;;;;;5047544;28;20025;-79
2021/12/31 01:41:04;;;;;;;21.70;12.85;;;4.50;99.70;;;;;;5033661;28;20029;-81
2021/12/31 01:43:32;;;;;;;22.98;12.02;;;4.50;99.80;;;;;;5035437;28;20088;-81
2021/12/31 01:46:00;;;;;;;23.00;12.35;;;4.50;99.80;;;;;;5053112;28;20029;-80
2021/12/31 01:48:35;;;;;;;23.70;12.13;;;4.50;99.80;;;;;;5035148;28;20025;-80
2021/12/31 01:51:01;;;;;;;21.85;12.15;;;4.60;99.80;;;;;;5052191;28;20517;-80
2021/12/31 01:53:31;;;;;;;23.33;12.05;;;4.50;99.90;;;;;;5054831;28;20028;-79
2021/12/31 01:55:59;;;;;;;24.65;13.25;;;4.50;99.60;;;;;;5052023;28;20032;-80
2021/12/31 01:58:26;;;;;;;22.75;12.52;;;4.40;99.80;;;;;;5053930;28;20017;-79
2021/12/31 02:00:53;;;;;;;25.08;13.82;;;4.40;99.90;;;;;;5035923;28;20033;-80
2021/12/31 02:03:21;;;;;;;19.40;11.77;;;4.30;99.90;;;;;;5039284;28;20571;-81
2021/12/31 02:05:48;;;;;;;22.10;12.75;;;4.30;99.90;;;;;;5057167;28;20032;-81
2021/12/31 02:08:15;;;;;;;22.15;13.20;;;6.20;99.90;;;;;;5053615;28;20115;-79
2021/12/31 02:10:41;;;;;;;24.70;12.30;;;4.30;99.90;;;;;;5054525;28;20028;-80
2021/12/31 02:13:11;;;;;;;31.33;15.45;;;4.20;99.90;;;;;;5053208;28;20021;-80
2021/12/31 02:15:37;;;;;;;33.53;16.55;;;4.10;99.90;;;;;;5052767;28;20021;-81
2021/12/31 02:18:08;;;;;;;27.33;15.90;;;4.10;99.90;;;;;;5052923;28;20464;-82
2021/12/31 02:20:57;;;;;;;31.60;14.50;;;4.30;99.90;;;;;;5054428;28;20017;-81
2021/12/31 02:23:39;;;;;;;20.63;12.68;;;4.30;99.90;;;;;;5052225;28;20040;-80
2021/12/31 02:26:08;;;;;;;22.25;13.07;;;4.40;99.90;;;;;;5036157;28;20039;-82
2021/12/31 02:28:36;;;;;;;21.70;12.35;;;4.40;99.90;;;;;;5055847;28;20021;-81
2021/12/31 02:31:03;;;;;;;22.08;12.73;;;4.40;99.90;;;;;;5056535;28;20045;-80
2021/12/31 02:33:31;;;;;;;22.98;12.35;;;4.40;99.90;;;;;;5057019;28;20017;-80
2021/12/31 02:35:59;;;;;;;19.00;12.07;;;4.40;99.90;;;;;;5050462;28;20040;-80
2021/12/31 02:38:25;;;;;;;19.15;11.15;;;4.40;99.90;;;;;;5050101;28;20147;-79
2021/12/31 02:40:51;;;;;;;18.13;10.77;;;4.40;99.90;;;;;;5033546;28;20119;-80
2021/12/31 02:43:20;;;;;;;20.88;10.73;;;4.40;99.90;;;;;;5033533;28;20022;-80
2021/12/31 02:45:47;;;;;;;19.55;10.73;;;4.40;99.90;;;;;;5051079;28;20033;-79
2021/12/31 02:48:13;;;;;;;19.63;10.82;;;4.40;99.90;;;;;;5042628;28;20056;-79
2021/12/31 02:50:42;;;;;;;19.58;11.30;;;4.40;99.90;;;;;;5066409;28;20056;-79
2021/12/31 02:53:15;;;;;;;21.77;12.10;;;4.40;99.90;;;;;;5067795;28;20013;-82
2021/12/31 02:55:44;;;;;;;25.95;12.98;;;4.50;99.90;;;;;;5041507;28;20021;-81
2021/12/31 02:58:12;;;;;;;23.15;13.38;;;4.50;99.90;;;;;;5060178;28;20100;-79
2021/12/31 03:00:47;;;;;;;27.88;13.98;;;4.50;99.90;;;;;;5041834;28;20021;-79
2021/12/31 03:03:14;;;;;;;35.33;19.58;;;4.50;99.90;;;;;;5056337;28;20603;-80
2021/12/31 03:05:41;;;;;;;38.83;20.85;;;4.60;99.90;;;;;;5038304;28;20039;-79
2021/12/31 03:08:12;;;;;;;37.35;21.13;;;4.60;99.90;;;;;;5052578;28;20092;-81
2021/12/31 03:10:39;;;;;;;40.22;19.60;;;3.00;99.90;;;;;;5058611;28;20021;-80
2021/12/31 03:13:07;;;;;;;38.42;20.75;;;4.70;99.90;;;;;;5059349;28;20051;-79
2021/12/31 03:15:34;;;;;;;45.33;24.25;;;4.80;99.90;;;;;;5059810;28;20084;-80
2021/12/31 03:18:03;;;;;;;48.17;27.13;;;4.80;99.90;;;;;;5061092;28;20025;-81
2021/12/31 03:20:41;;;;;;;58.05;30.90;;;4.80;99.90;;;;;;5046252;28;20078;-81
2021/12/31 03:23:09;;;;;;;63.30;32.70;;;6.40;99.90;;;;;;5067953;28;20013;-81
2021/12/31 03:25:36;;;;;;;60.45;31.35;;;1.90;99.90;;;;;;5068530;28;20029;-81
2021/12/31 03:28:02;;;;;;;64.75;33.80;;;4.90;99.90;;;;;;5068908;28;20040;-80
2021/12/31 03:30:28;;;;;;;58.30;29.88;;;5.00;99.90;;;;;;5059740;28;20013;-78
2021/12/31 03:32:56;;;;;;;54.10;28.75;;;5.00;99.90;;;;;;5058473;28;20561;-79
2021/12/31 03:35:22;;;;;;;50.70;25.00;;;5.00;99.90;;;;;;5056789;28;20047;-79
2021/12/31 03:37:49;;;;;;;46.75;24.20;;;5.00;99.90;;;;;;5057798;28;20045;-81
2021/12/31 03:40:14;;;;;;;39.20;21.90;;;5.00;99.90;;;;;;5055879;28;20063;-80
2021/12/31 03:42:42;;;;;;;39.42;22.08;;;4.90;99.90;;;;;;5054589;28;20463;-82
2021/12/31 03:45:11;;;;;;;39.28;21.63;;;5.10;99.90;;;;;;5055427;28;20075;-81
2021/12/31 03:47:36;;;;;;;38.63;22.70;;;5.10;99.90;;;;;;5054833;28;20329;-79
2021/12/31 03:50:04;;;;;;;32.83;19.35;;;5.10;99.90;;;;;;5055172;28;20037;-81
2021/12/31 03:52:29;;;;;;;31.13;18.73;;;5.10;99.70;;;;;;5035568;28;20036;-79
2021/12/31 03:54:55;;;;;;;33.42;18.52;;;5.10;99.90;;;;;;5053847;28;20142;-79
2021/12/31 03:57:21;;;;;;;34.67;17.98;;;5.10;99.90;;;;;;5037990;28;20063;-80
2021/12/31 03:59:47;;;;;;;33.20;17.42;;;5.10;99.80;;;;;;5057096;28;20104;-80
2021/12/31 04:02:15;;;;;;;31.67;17.67;;;5.10;99.50;;;;;;5036760;28;20285;-79
2021/12/31 04:04:41;;;;;;;28.88;15.95;;;5.20;99.80;;;;;;5055522;28;20033;-80
2021/12/31 04:07:08;;;;;;;25.40;13.80;;;5.20;99.90;;;;;;5058294;28;20223;-81
2021/12/31 04:09:33;;;;;;;25.98;13.90;;;5.10;99.40;;;;;;5056582;28;20071;-82
2021/12/31 04:11:59;;;;;;;23.23;13.13;;;5.10;99.50;;;;;;5057407;28;20017;-80
2021/12/31 04:14:25;;;;;;;25.95;14.27;;;5.10;99.50;;;;;;5038686;28;20533;-81
2021/12/31 04:16:50;;;;;;;26.73;14.43;;;6.60;99.90;;;;;;5039635;28;20128;-82
2021/12/31 04:19:16;;;;;;;30.17;15.07;;;5.00;99.40;;;;;;5060083;28;20024;-82
2021/12/31 04:21:44;;;;;;;24.15;14.05;;;5.00;99.60;;;;;;5039309;28;20079;-80
2021/12/31 04:24:27;;;;;;;26.75;15.07;;;5.00;99.60;;;;;;5056740;28;20218;-82
2021/12/31 04:26:53;;;;;;;25.75;14.93;;;3.40;99.40;;;;;;5037928;28;20029;-80
2021/12/31 04:29:19;;;;;;;32.38;16.75;;;5.00;99.90;;;;;;5061249;28;20031;-81
2021/12/31 04:31:45;;;;;;;27.25;14.55;;;3.50;99.30;;;;;;5038696;28;20063;-79
2021/12/31 04:34:12;;;;;;;28.05;15.52;;;4.90;99.70;;;;;;5060029;28;20090;-79
2021/12/31 04:36:38;;;;;;;30.25;15.55;;;4.90;99.80;;;;;;5059468;28;20021;-80
2021/12/31 04:39:03;;;;;;;28.85;16.55;;;4.90;99.90;;;;;;5058647;28;20025;-80
2021/12/31 04:41:29;;;;;;;34.47;17.35;;;4.80;99.90;;;;;;5053102;28;20025;-80
2021/12/31 04:43:57;;;;;;;28.73;15.77;;;4.80;99.90;;;;;;5054612;28;20068;-82
2021/12/31 04:46:24;;;;;;;30.80;16.65;;;4.70;99.90;;;;;;5054802;28;20226;-80
2021/12/31 04:48:49;;;;;;;35.22;15.48;;;4.70;99.90;;;;;;5038641;28;20020;-81
2021/12/31 04:51:15;;;;;;;25.92;15.93;;;4.70;99.90;;;;;;5056217;28;20608;-81
2021/12/31 04:53:42;;;;;;;34.63;17.67;;;5.00;99.90;;;;;;5055625;28;20013;-80
2021/12/31 04:56:11;;;;;;;39.63;22.40;;;4.60;99.90;;;;;;5056139;28;20021;-82
2021/12/31 04:58:36;;;;;;;41.65;21.98;;;4.60;99.90;;;;;;5053698;28;20108;-82
2021/12/31 05:01:04;;;;;;;44.42;21.83;;;4.50;99.90;;;;;;5053984;28;20353;-81
2021/12/31 05:03:29;;;;;;;43.42;22.40;;;4.50;99.90;;;;;;5036349;28;20029;-81
2021/12/31 05:05:55;;;;;;;37.65;20.58;;;4.40;99.90;;;;;;5049534;28;20037;-79
2021/12/31 05:08:21;;;;;;;40.35;20.83;;;4.50;99.90;;;;;;5049623;28;20048;-81
2021/12/31 05:10:46;;;;;;;40.00;21.38;;;4.30;99.90;;;;;;5049012;28;20029;-81
2021/12/31 05:13:15;;;;;;;33.67;19.67;;;4.40;99.90;;;;;;5050046;28;20031;-80
2021/12/31 05:15:46;;;;;;;31.58;17.75;;;4.40;99.90;;;;;;5031967;28;20068;-82
2021/12/31 05:18:15;;;;;;;32.75;18.77;;;3.90;99.90;;;;;;5030800;28;20019;-81
2021/12/31 05:20:41;;;;;;;33.63;18.13;;;4.30;99.90;;;;;;5052657;28;20042;-79
2021/12/31 05:23:08;;;;;;;33.10;18.42;;;4.30;99.90;;;;;;5054763;28;20097;-80
2021/12/31 05:25:34;;;;;;;33.10;19.05;;;4.30;99.90;;;;;;5016004;28;20055;-79
2021/12/31 05:27:59;;;;;;;34.88;18.67;;;4.20;99.90;;;;;;5033025;28;20029;-80
2021/12/31 05:30:25;;;;;;;31.73;16.42;;;6.10;99.90;;;;;;5034683;28;20020;-80
2021/12/31 05:32:52;;;;;;;28.25;15.52;;;4.20;99.90;;;;;;5035537;28;20384;-79
2021/12/31 05:35:19;;;;;;;24.10;14.57;;;4.30;99.90;;;;;;5054813;28;20029;-80
2021/12/31 05:37:44;;;;;;;23.77;12.98;;;4.20;99.90;;;;;;5055643;28;20021;-81
2021/12/31 05:40:10;;;;;;;23.52;12.27;;;4.20;99.90;;;;;;5053222;28;20025;-80
2021/12/31 05:42:37;;;;;;;21.85;10.95;;;4.20;99.90;;;;;;5055695;28;20025;-80
2021/12/31 05:45:04;;;;;;;25.40;11.45;;;2.60;99.90;;;;;;5056128;28;20078;-81
2021/12/31 05:47:29;;;;;;;22.85;10.95;;;4.20;99.90;;;;;;5056143;28;20545;-80
2021/12/31 05:49:56;;;;;;;23.20;10.90;;;4.10;99.90;;;;;;5052359;28;20571;-79
2021/12/31 05:52:23;;;;;;;24.48;12.48;;;4.10;99.90;;;;;;5033596;28;20511;-81
2021/12/31 05:54:49;;;;;;;28.23;14.70;;;4.10;99.90;;;;;;5052384;28;20039;-79
2021/12/31 05:57:18;;;;;;;33.35;17.60;;;4.10;99.90;;;;;;5053068;28;20059;-82
2021/12/31 05:59:43;;;;;;;42.58;19.65;;;4.80;99.90;;;;;;5047932;28;20033;-80
2021/12/31 06:02:09;;;;;;;43.30;22.20;;;4.00;99.90;;;;;;5041981;28;20040;-81
2021/12/31 06:04:41;;;;;;;40.65;23.42;;;3.80;99.90;;;;;;5032812;28;20052;-81
2021/12/31 06:07:08;;;;;;;46.42;23.67;;;3.90;99.90;;;;;;5053824;28;20064;-78
2021/12/31 06:09:36;;;;;;;47.35;24.80;;;4.80;99.90;;;;;;5039661;28;20281;-76
2021/12/31 06:12:02;;;;;;;44.85;24.88;;;4.60;99.90;;;;;;5043495;28;20025;-79
2021/12/31 06:14:30;;;;;;;52.00;25.33;;;3.90;99.90;;;;;;5054287;28;20028;-81
2021/12/31 06:17:02;;;;;;;49.85;26.73;;;3.80;99.90;;;;;;5035259;28;20025;-80
2021/12/31 06:19:28;;;;;;;56.83;28.35;;;3.70;99.90;;;;;;5044427;28;20112;-80
2021/12/31 06:21:54;;;;;;;48.80;26.30;;;3.90;99.90;;;;;;4981721;28;20148;-80
2021/12/31 06:24:20;;;;;;;48.60;25.55;;;3.90;99.90;;;;;;4982157;28;20558;-81
2021/12/31 06:26:45;;;;;;;45.38;23.65;;;3.90;99.90;;;;;;4968243;28;20326;-80
2021/12/31 06:29:11;;;;;;;51.00;27.58;;;3.80;99.90;;;;;;4988466;28;20719;-80
2021/12/31 06:31:38;;;;;;;53.58;28.83;;;3.80;99.90;;;;;;4990238;28;20034;-80
2021/12/31 06:34:05;;;;;;;64.78;32.05;;;3.80;99.90;;;;;;4991926;28;20023;-80
2021/12/31 06:36:31;;;;;;;67.88;33.85;;;3.80;99.90;;;;;;4992942;28;20042;-79
2021/12/31 06:39:02;;;;;;;90.38;38.75;;;3.80;99.90;;;;;;4989824;28;20050;-79
2021/12/31 06:41:32;;;;;;;92.15;39.88;;;3.80;99.90;;;;;;4994138;28;20220;-81
2021/12/31 06:44:03;;;;;;;92.15;40.47;;;3.90;99.90;;;;;;4976021;28;20030;-80
2021/12/31 06:46:29;;;;;;;90.28;39.85;;;4.40;99.90;;;;;;4992185;28;20517;-82
2021/12/31 06:48:55;;;;;;;74.28;36.90;;;3.90;99.90;;;;;;4994813;28;20074;-81
2021/12/31 06:51:30;;;;;;;69.75;36.47;;;3.90;99.90;;;;;;4995751;28;20116;-79
2021/12/31 06:54:07;;;;;;;64.72;34.90;;;3.80;99.90;;;;;;5026792;28;20037;-82
2021/12/31 06:56:40;;;;;;;69.20;36.83;;;6.20;99.90;;;;;;5063845;28;20025;-81
2021/12/31 06:59:06;;;;;;;66.28;36.42;;;4.00;99.90;;;;;;5046161;28;20041;-81
2021/12/31 07:01:38;;;;;;;66.53;35.50;;;4.70;99.90;;;;;;5065152;28;20684;-80
2021/12/31 07:04:04;;;;;;;70.60;37.08;;;3.90;99.90;;;;;;5043361;28;20053;-81
2021/12/31 07:06:33;;;;;;;73.65;38.22;;;3.90;99.90;;;;;;5061355;28;20073;-79
2021/12/31 07:08:58;;;;;;;78.00;39.75;;;3.90;99.90;;;;;;5059135;28;20301;-80
2021/12/31 07:11:25;;;;;;;79.03;42.30;;;3.90;99.90;;;;;;5064483;28;20017;-82
2021/12/31 07:13:56;;;;;;;89.60;44.78;;;3.90;99.90;;;;;;5040036;28;20060;-81
2021/12/31 07:16:24;;;;;;;79.93;42.95;;;4.00;99.90;;;;;;5056768;28;20021;-80
2021/12/31 07:18:50;;;;;;;78.07;42.30;;;3.90;99.90;;;;;;5058853;28;20492;-82
2021/12/31 07:21:16;;;;;;;88.55;46.10;;;3.20;99.90;;;;;;5057306;28;20337;-79
2021/12/31 07:23:42;;;;;;;94.82;45.20;;;3.00;99.90;;;;;;5060480;28;20025;-80
2021/12/31 07:26:08;;;;;;;77.30;38.92;;;4.00;99.90;;;;;;5042825;28;20433;-81
2021/12/31 07:28:35;;;;;;;68.47;35.30;;;4.00;99.90;;;;;;5066075;28;20035;-81
2021/12/31 07:31:01;;;;;;;83.70;42.05;;;4.00;99.90;;;;;;5060273;28;20024;-80
2021/12/31 07:33:28;;;;;;;82.47;43.00;;;4.00;99.90;;;;;;5062950;28;20052;-81
2021/12/31 07:35:54;;;;;;;73.22;38.92;;;4.00;99.90;;;;;;5045381;28;20021;-79
2021/12/31 07:38:27;;;;;;;72.78;38.03;;;4.00;99.90;;;;;;5062940;28;20032;-79
2021/12/31 07:40:53;;;;;;;73.43;40.72;;;4.00;99.90;;;;;;5041597;28;20021;-79
2021/12/31 07:43:21;;;;;;;73.88;40.15;;;4.10;99.90;;;;;;5062428;28;20043;-81
2021/12/31 07:45:47;;;;;;;71.70;38.45;;;4.10;99.90;;;;;;5064267;28;20045;-81
2021/12/31 07:48:12;;;;;;;98.97;55.05;;;4.20;99.90;;;;;;5064143;28;20021;-79
2021/12/31 07:50:53;;;;;;;87.00;46.85;;;4.30;99.90;;;;;;5062917;28;20041;-81
2021/12/31 07:53:26;;;;;;;85.03;46.05;;;4.30;99.90;;;;;;5066080;28;20021;-81
2021/12/31 07:55:58;;;;;;;85.38;46.20;;;5.30;99.90;;;;;;5062563;28;20505;-81
2021/12/31 07:58:24;;;;;;;81.57;45.28;;;4.50;99.90;;;;;;5064581;28;20036;-82
2021/12/31 08:01:14;;;;;;;98.90;52.10;;;4.50;99.90;;;;;;5064811;28;20029;-81
2021/12/31 08:03:39;;;;;;;83.10;45.22;;;4.60;99.90;;;;;;5004744;28;20041;-80
2021/12/31 08:06:05;;;;;;;76.50;43.35;;;4.80;99.90;;;;;;5002602;28;20197;-81
2021/12/31 08:08:32;;;;;;;78.57;42.05;;;4.80;99.90;;;;;;4983754;28;20036;-79
2021/12/31 08:10:59;;;;;;;68.30;38.97;;;4.10;99.90;;;;;;5000211;28;20031;-79
2021/12/31 08:13:25;;;;;;;69.95;38.22;;;5.00;99.90;;;;;;5004024;28;20030;-82
2021/12/31 08:16:07;;;;;;;76.03;41.10;;;5.00;99.90;;;;;;5002345;28;20030;-80
2021/12/31 08:18:33;;;;;;;73.40;41.42;;;5.10;99.90;;;;;;4998033;28;20050;-79
2021/12/31 08:20:58;;;;;;;82.05;43.25;;;5.30;99.90;;;;;;4995396;28;20034;-80
2021/12/31 08:23:25;;;;;;;92.00;49.00;;;5.30;99.90;;;;;;4990076;28;20117;-80
2021/12/31 08:25:51;;;;;;;100.00;53.65;;;5.40;99.90;;;;;;4978759;28;20038;-80
2021/12/31 08:28:17;;;;;;;98.32;52.00;;;5.50;99.90;;;;;;4975506;28;20053;-81
2021/12/31 08:30:43;;;;;;;111.32;60.70;;;5.60;99.80;;;;;;4992909;28;20027;-80
2021/12/31 08:33:08;;;;;;;116.15;63.17;;;5.70;99.60;;;;;;4993988;28;20026;-80
2021/12/31 08:35:35;;;;;;;124.85;67.80;;;5.80;99.70;;;;;;5048644;28;20051;-81
2021/12/31 08:38:02;;;;;;;109.07;62.20;;;5.80;99.20;;;;;;5036795;28;20035;-82
2021/12/31 08:40:27;;;;;;;136.25;70.22;;;5.90;99.30;;;;;;5055935;28;20017;-79
2021/12/31 08:42:54;;;;;;;125.93;69.93;;;6.00;98.90;;;;;;5060104;28;20025;-80
2021/12/31 08:45:21;;;;;;;107.07;60.17;;;6.00;98.70;;;;;;5063342;28;20032;-82
2021/12/31 08:47:47;;;;;;;120.18;63.70;;;6.10;99.00;;;;;;5065873;28;20025;-81
2021/12/31 08:50:13;;;;;;;117.13;61.67;;;6.10;98.60;;;;;;5064731;28;20253;-83
2021/12/31 08:52:40;;;;;;;106.88;59.42;;;6.20;98.80;;;;;;5068411;28;20017;-81
2021/12/31 08:55:11;;;;;;;110.63;59.80;;;6.30;98.40;;;;;;5067907;28;20043;-79
2021/12/31 08:57:37;;;;;;;108.32;59.47;;;6.40;98.10;;;;;;5061718;28;20005;-82
2021/12/31 09:00:08;;;;;;;105.43;59.75;;;6.50;97.90;;;;;;5054496;28;20031;-79
2021/12/31 09:02:35;;;;;;;106.15;60.38;;;6.60;97.80;;;;;;5048849;28;20082;-82
2021/12/31 09:05:02;;;;;;;106.40;57.67;;;6.70;97.60;;;;;;5047081;28;20017;-81
2021/12/31 09:07:29;;;;;;;97.00;53.97;;;7.10;97.30;;;;;;5030776;28;20025;-81
2021/12/31 09:09:55;;;;;;;90.78;51.80;;;6.90;97.00;;;;;;5051980;28;20029;-80
2021/12/31 09:12:20;;;;;;;90.03;50.10;;;7.00;97.20;;;;;;5038224;28;20044;-81
2021/12/31 09:14:53;;;;;;;87.90;50.20;;;7.20;96.50;;;;;;5040991;28;20050;-81
2021/12/31 09:17:21;;;;;;;93.78;51.28;;;7.10;96.20;;;;;;5062083;28;20056;-81
2021/12/31 09:19:50;;;;;;;95.82;50.80;;;7.30;96.40;;;;;;5062266;28;20016;-82
2021/12/31 09:22:16;;;;;;;94.63;53.53;;;7.40;95.90;;;;;;5046037;28;20051;-81
2021/12/31 09:24:48;;;;;;;92.40;50.30;;;7.50;95.70;;;;;;5060291;28;20025;-80
2021/12/31 09:27:15;;;;;;;91.68;50.00;;;7.60;95.40;;;;;;5057337;28;20040;-82
2021/12/31 09:29:40;;;;;;;88.20;49.65;;;7.70;95.20;;;;;;5060071;28;20017;-81
2021/12/31 09:32:07;;;;;;;86.15;46.15;;;7.90;94.70;;;;;;5045672;28;20121;-82
2021/12/31 09:34:34;;;;;;;75.45;43.22;;;8.00;94.40;;;;;;5064706;28;20009;-82
2021/12/31 09:37:01;;;;;;;73.32;43.00;;;8.10;94.00;;;;;;5069775;28;20032;-81
2021/12/31 09:39:28;;;;;;;69.32;40.22;;;8.20;94.60;;;;;;5050117;28;20035;-82
2021/12/31 09:41:57;;;;;;;65.22;38.17;;;8.30;94.10;;;;;;5068077;28;20094;-81
2021/12/31 09:44:23;;;;;;;63.42;36.45;;;8.40;93.80;;;;;;5069443;28;20017;-81
2021/12/31 09:46:49;;;;;;;59.92;35.10;;;8.10;93.20;;;;;;5048148;28;20025;-80
2021/12/31 09:49:16;;;;;;;59.40;34.97;;;8.50;93.90;;;;;;5039955;28;20056;-82
2021/12/31 09:51:42;;;;;;;53.58;30.00;;;8.70;93.40;;;;;;5038390;28;20026;-80
2021/12/31 09:54:10;;;;;;;53.17;28.92;;;8.80;93.10;;;;;;5039916;28;20040;-79
2021/12/31 09:56:41;;;;;;;48.75;29.88;;;8.70;92.70;;;;;;5031457;28;20034;-79
2021/12/31 09:59:08;;;;;;;49.70;27.95;;;8.80;92.50;;;;;;5020018;28;20041;-78
2021/12/31 10:01:51;;;;;;;42.70;24.95;;;9.00;92.40;;;;;;5043020;28;20079;-80
2021/12/31 10:04:19;;;;;;;52.25;29.48;;;9.00;92.00;;;;;;5033522;28;20029;-81
2021/12/31 10:07:07;;;;;;;47.80;29.35;;;9.00;92.10;;;;;;5010803;28;20033;-80
2021/12/31 10:09:35;;;;;;;59.42;34.75;;;9.20;91.90;;;;;;5012512;28;20092;-79
2021/12/31 10:12:12;;;;;;;61.10;35.15;;;9.10;91.90;;;;;;5044391;28;20045;-81
2021/12/31 10:14:44;;;;;;;64.18;37.38;;;6.80;91.00;;;;;;5039456;28;20040;-80
2021/12/31 10:17:10;;;;;;;60.20;35.30;;;9.50;91.20;;;;;;5025442;28;20091;-82
2021/12/31 10:20:04;;;;;;;63.78;37.45;;;9.50;91.40;;;;;;5043806;28;20096;-80
2021/12/31 10:22:35;;;;;;;59.55;33.60;;;9.80;91.30;;;;;;5043831;28;20022;-81
2021/12/31 10:25:01;;;;;;;59.00;35.75;;;9.70;91.00;;;;;;5041735;28;20028;-80
2021/12/31 10:27:35;;;;;;;57.45;35.28;;;9.70;91.00;;;;;;5041975;28;20021;-79
2021/12/31 10:30:06;;;;;;;59.88;35.40;;;10.00;91.30;;;;;;5045232;28;20053;-79
2021/12/31 10:32:40;;;;;;;65.90;37.95;;;10.10;90.40;;;;;;5039084;28;20052;-80
2021/12/31 10:35:20;;;;;;;76.32;38.95;;;10.20;90.50;;;;;;5036641;28;20072;-79
2021/12/31 10:38:06;;;;;;;67.55;38.70;;;10.40;89.90;;;;;;5022338;28;20029;-80
2021/12/31 10:40:33;;;;;;;76.55;39.63;;;10.60;89.20;;;;;;5034946;28;20030;-79
2021/12/31 10:43:07;;;;;;;78.55;42.53;;;10.70;89.50;;;;;;5035476;28;20013;-78
2021/12/31 10:45:34;;;;;;;71.22;42.03;;;10.80;89.70;;;;;;5030095;28;20029;-81
2021/12/31 10:48:16;;;;;;;73.63;41.67;;;10.40;90.20;;;;;;5019543;28;20120;-80
2021/12/31 10:50:51;;;;;;;62.17;37.20;;;11.10;90.30;;;;;;5052528;28;20053;-80
2021/12/31 10:53:33;;;;;;;72.80;41.03;;;11.30;88.70;;;;;;5029140;28;20049;-81
2021/12/31 10:56:10;;;;;;;68.07;38.58;;;11.50;86.90;;;;;;5044754;28;20032;-79
2021/12/31 10:58:56;;;;;;;59.17;34.97;;;11.60;85.20;;;;;;5055043;28;20044;-79
2021/12/31 11:01:23;;;;;;;60.37;36.27;;;11.70;84.80;;;;;;5048661;28;20024;-84
2021/12/31 11:03:49;;;;;;;59.53;35.08;;;11.80;85.30;;;;;;5034102;28;20010;-83
2021/12/31 11:06:17;;;;;;;60.60;35.50;;;12.20;84.90;;;;;;5027882;28;20059;-83
2021/12/31 11:08:49;;;;;;;61.22;33.90;;;11.90;84.20;;;;;;5043496;28;20021;-82
2021/12/31 11:11:16;;;;;;;54.83;31.55;;;12.10;83.00;;;;;;5025204;28;20511;-86
2021/12/31 11:13:44;;;;;;;58.47;33.35;;;12.20;82.70;;;;;;5043550;28;20021;-86
2021/12/31 11:16:10;;;;;;;57.72;34.42;;;12.30;82.80;;;;;;5025118;28;20009;-84
2021/12/31 11:18:39;;;;;;;60.10;33.80;;;12.40;82.30;;;;;;5025651;28;20029;-84
2021/12/31 11:21:08;;;;;;;58.67;33.85;;;12.50;81.50;;;;;;5024974;28;20048;-82
2021/12/31 11:23:36;;;;;;;59.95;34.22;;;13.20;82.80;;;;;;5041668;28;20021;-83
2021/12/31 11:26:07;;;;;;;62.72;35.38;;;12.80;80.00;;;;;;5023398;28;20117;-82
2021/12/31 11:28:39;;;;;;;55.03;32.75;;;12.80;79.80;;;;;;5022991;28;20043;-82
2021/12/31 11:31:24;;;;;;;60.08;33.40;;;12.70;79.30;;;;;;5041240;28;20103;-86
2021/12/31 11:33:59;;;;;;;55.00;33.50;;;12.80;81.20;;;;;;5028054;28;20695;-80
2021/12/31 11:36:51;;;;;;;67.05;37.55;;;12.80;80.30;;;;;;5042046;28;20025;-86
2021/12/31 11:39:22;;;;;;;59.70;35.20;;;12.90;81.20;;;;;;5041370;28;20018;-84
2021/12/31 11:41:48;;;;;;;58.33;35.47;;;13.00;79.90;;;;;;5041041;28;20395;-83
2021/12/31 11:44:14;;;;;;;60.53;36.35;;;13.10;79.70;;;;;;5040695;28;20021;-85
2021/12/31 11:46:45;;;;;;;59.25;36.33;;;13.00;79.00;;;;;;5022917;28;20088;-81
2021/12/31 11:49:31;;;;;;;64.50;39.90;;;13.10;78.90;;;;;;5040109;28;20041;-84
2021/12/31 11:51:58;;;;;;;63.55;38.70;;;13.30;79.10;;;;;;5041038;28;20021;-84
2021/12/31 11:54:24;;;;;;;68.30;41.13;;;13.40;78.80;;;;;;5041021;28;20040;-81
2021/12/31 11:56:51;;;;;;;66.53;38.47;;;13.50;78.60;;;;;;5040702;28;20021;-79
2021/12/31 11:59:17;;;;;;;70.10;40.72;;;13.60;78.00;;;;;;5041205;28;20053;-82
2021/12/31 12:01:55;;;;;;;67.65;40.58;;;13.70;77.00;;;;;;5023642;28;20514;-82
2021/12/31 12:04:29;;;;;;;67.25;41.00;;;13.60;76.30;;;;;;5023535;28;20516;-86
2021/12/31 12:07:29;;;;;;;71.38;40.28;;;13.70;77.30;;;;;;5040705;28;20044;-84
2021/12/31 12:09:54;;;;;;;67.47;40.30;;;13.80;77.10;;;;;;5022464;28;20233;-81
2021/12/31 12:12:20;;;;;;;75.40;42.22;;;13.90;77.00;;;;;;5022221;28;20306;-82
2021/12/31 12:14:48;;;;;;;63.00;38.15;;;14.00;75.20;;;;;;5022345;28;20047;-83
2021/12/31 12:17:16;;;;;;;77.18;43.53;;;14.10;76.30;;;;;;5021846;28;20132;-85
2021/12/31 12:19:50;;;;;;;74.22;43.22;;;14.20;75.80;;;;;;5039203;28;20025;-81
2021/12/31 12:22:52;;;;;;;80.40;47.63;;;14.30;74.20;;;;;;5040252;28;20029;-81
2021/12/31 12:25:29;;;;;;;73.53;45.88;;;14.30;74.20;;;;;;5039352;28;20253;-86
2021/12/31 12:28:09;;;;;;;80.30;46.95;;;14.30;74.80;;;;;;5021982;28;20037;-83
2021/12/31 12:30:42;;;;;;;83.68;47.55;;;14.30;73.70;;;;;;5040605;28;20013;-79
2021/12/31 12:33:16;;;;;;;96.28;51.25;;;14.40;73.60;;;;;;5040807;28;20411;-78
2021/12/31 12:35:45;;;;;;;81.63;47.65;;;14.20;73.90;;;;;;5039900;28;20024;-82
2021/12/31 12:38:25;;;;;;;74.57;44.83;;;14.50;73.10;;;;;;5039025;28;20689;-82
2021/12/31 12:41:09;;;;;;;61.85;36.65;;;14.60;73.60;;;;;;5021248;28;20029;-83
2021/12/31 12:43:48;;;;;;;67.63;40.58;;;14.50;72.50;;;;;;5021112;28;20025;-83
2021/12/31 12:46:17;;;;;;;75.47;41.35;;;14.60;72.80;;;;;;5039219;28;20033;-85
2021/12/31 12:48:49;;;;;;;82.82;47.78;;;14.60;71.70;;;;;;5021507;28;20027;-84